sensor_id;sensor_type;location;lat;lon;timestamp;P1;durP1;ratioP1;P2;durP2;ratioP2
22606;SDS011;11470;20.968;105.834;2023-07-16T00:01:38;14.85;;;6.93;;
22606;SDS011;11470;20.968;105.834;2023-07-16T00:06:43;13.23;;;5.88;;
22606;SDS011;11470;20.968;105.834;2023-07-16T00:11:48;12.43;;;7.00;;
22606;SDS011;11470;20.968;105.834;2023-07-16T00:16:53;9.00;;;4.93;;
22606;SDS011;11470;20.968;105.834;2023-07-16T00:21:59;12.25;;;6.40;;
22606;SDS011;11470;20.968;105.834;2023-07-16T00:27:04;14.38;;;7.22;;
22606;SDS011;11470;20.968;105.834;2023-07-16T00:32:09;16.92;;;9.13;;
22606;SDS011;11470;20.968;105.834;2023-07-16T00:37:14;13.50;;;5.68;;
22606;SDS011;11470;20.968;105.834;2023-07-16T00:42:19;15.87;;;7.70;;
22606;SDS011;11470;20.968;105.834;2023-07-16T00:47:24;9.63;;;5.37;;
22606;SDS011;11470;20.968;105.834;2023-07-16T00:52:31;8.52;;;5.03;;
22606;SDS011;11470;20.968;105.834;2023-07-16T00:57:35;15.15;;;7.28;;
22606;SDS011;11470;20.968;105.834;2023-07-16T01:02:43;10.25;;;5.68;;
22606;SDS011;11470;20.968;105.834;2023-07-16T01:07:54;9.13;;;5.23;;
22606;SDS011;11470;20.968;105.834;2023-07-16T01:13:03;11.50;;;4.77;;
22606;SDS011;11470;20.968;105.834;2023-07-16T01:34:38;12.20;;;6.30;;
22606;SDS011;11470;20.968;105.834;2023-07-16T01:39:43;12.98;;;7.00;;
22606;SDS011;11470;20.968;105.834;2023-07-16T01:44:49;10.65;;;6.07;;
22606;SDS011;11470;20.968;105.834;2023-07-16T01:54:59;12.80;;;7.43;;
22606;SDS011;11470;20.968;105.834;2023-07-16T02:00:05;15.15;;;9.10;;
22606;SDS011;11470;20.968;105.834;2023-07-16T02:05:20;8.02;;;3.92;;
22606;SDS011;11470;20.968;105.834;2023-07-16T02:10:25;7.35;;;4.15;;
22606;SDS011;11470;20.968;105.834;2023-07-16T02:15:31;16.95;;;9.43;;
22606;SDS011;11470;20.968;105.834;2023-07-16T02:20:37;15.85;;;8.57;;
22606;SDS011;11470;20.968;105.834;2023-07-16T02:25:43;16.70;;;8.93;;
22606;SDS011;11470;20.968;105.834;2023-07-16T02:30:51;11.43;;;5.13;;
22606;SDS011;11470;20.968;105.834;2023-07-16T02:35:56;10.00;;;4.93;;
22606;SDS011;11470;20.968;105.834;2023-07-16T02:41:02;16.23;;;8.65;;
22606;SDS011;11470;20.968;105.834;2023-07-16T02:51:12;16.95;;;8.15;;
22606;SDS011;11470;20.968;105.834;2023-07-16T02:56:19;15.30;;;9.60;;
22606;SDS011;11470;20.968;105.834;2023-07-16T03:01:25;15.85;;;6.90;;
22606;SDS011;11470;20.968;105.834;2023-07-16T03:06:30;13.57;;;8.30;;
22606;SDS011;11470;20.968;105.834;2023-07-16T03:11:35;14.50;;;6.47;;
22606;SDS011;11470;20.968;105.834;2023-07-16T03:16:40;13.82;;;7.47;;
22606;SDS011;11470;20.968;105.834;2023-07-16T03:21:46;16.10;;;8.85;;
22606;SDS011;11470;20.968;105.834;2023-07-16T03:26:53;18.83;;;9.52;;
22606;SDS011;11470;20.968;105.834;2023-07-16T03:32:15;11.90;;;5.72;;
22606;SDS011;11470;20.968;105.834;2023-07-16T03:37:21;9.35;;;5.90;;
22606;SDS011;11470;20.968;105.834;2023-07-16T03:42:27;17.42;;;9.10;;
22606;SDS011;11470;20.968;105.834;2023-07-16T03:47:31;19.40;;;9.52;;
22606;SDS011;11470;20.968;105.834;2023-07-16T03:52:37;20.40;;;9.40;;
22606;SDS011;11470;20.968;105.834;2023-07-16T04:02:48;9.20;;;5.38;;
22606;SDS011;11470;20.968;105.834;2023-07-16T04:07:53;13.63;;;6.82;;
22606;SDS011;11470;20.968;105.834;2023-07-16T04:12:59;14.88;;;7.55;;
22606;SDS011;11470;20.968;105.834;2023-07-16T04:18:04;23.30;;;10.27;;
22606;SDS011;11470;20.968;105.834;2023-07-16T04:23:09;13.93;;;9.07;;
22606;SDS011;11470;20.968;105.834;2023-07-16T04:28:14;18.60;;;9.38;;
22606;SDS011;11470;20.968;105.834;2023-07-16T04:33:19;18.97;;;9.47;;
22606;SDS011;11470;20.968;105.834;2023-07-16T04:43:30;19.88;;;9.07;;
22606;SDS011;11470;20.968;105.834;2023-07-16T04:48:34;19.05;;;10.05;;
22606;SDS011;11470;20.968;105.834;2023-07-16T04:53:40;13.95;;;7.97;;
22606;SDS011;11470;20.968;105.834;2023-07-16T04:58:45;14.98;;;8.85;;
22606;SDS011;11470;20.968;105.834;2023-07-16T05:03:50;13.45;;;5.72;;
22606;SDS011;11470;20.968;105.834;2023-07-16T05:08:55;21.15;;;10.90;;
22606;SDS011;11470;20.968;105.834;2023-07-16T05:14:00;16.42;;;7.88;;
22606;SDS011;11470;20.968;105.834;2023-07-16T05:19:05;8.85;;;5.22;;
22606;SDS011;11470;20.968;105.834;2023-07-16T05:24:10;15.15;;;7.65;;
22606;SDS011;11470;20.968;105.834;2023-07-16T05:29:16;16.15;;;8.70;;
22606;SDS011;11470;20.968;105.834;2023-07-16T05:34:21;13.98;;;6.80;;
22606;SDS011;11470;20.968;105.834;2023-07-16T05:39:29;20.13;;;10.07;;
22606;SDS011;11470;20.968;105.834;2023-07-16T05:44:35;11.10;;;6.18;;
22606;SDS011;11470;20.968;105.834;2023-07-16T05:49:39;17.05;;;8.07;;
22606;SDS011;11470;20.968;105.834;2023-07-16T05:54:49;14.13;;;6.00;;
22606;SDS011;11470;20.968;105.834;2023-07-16T05:59:57;11.32;;;6.47;;
22606;SDS011;11470;20.968;105.834;2023-07-16T06:05:12;15.32;;;7.53;;
22606;SDS011;11470;20.968;105.834;2023-07-16T06:10:17;13.07;;;6.47;;
22606;SDS011;11470;20.968;105.834;2023-07-16T06:15:22;11.52;;;7.47;;
22606;SDS011;11470;20.968;105.834;2023-07-16T06:20:28;14.10;;;6.80;;
22606;SDS011;11470;20.968;105.834;2023-07-16T06:25:33;13.63;;;6.47;;
22606;SDS011;11470;20.968;105.834;2023-07-16T06:30:38;13.88;;;6.88;;
22606;SDS011;11470;20.968;105.834;2023-07-16T06:35:46;11.25;;;6.15;;
22606;SDS011;11470;20.968;105.834;2023-07-16T06:40:52;11.18;;;5.18;;
22606;SDS011;11470;20.968;105.834;2023-07-16T06:45:58;12.90;;;5.72;;
22606;SDS011;11470;20.968;105.834;2023-07-16T06:51:04;11.52;;;5.95;;
22606;SDS011;11470;20.968;105.834;2023-07-16T07:01:14;8.25;;;3.65;;
22606;SDS011;11470;20.968;105.834;2023-07-16T07:11:31;13.95;;;6.07;;
22606;SDS011;11470;20.968;105.834;2023-07-16T07:16:38;14.95;;;7.07;;
22606;SDS011;11470;20.968;105.834;2023-07-16T07:21:47;17.90;;;6.78;;
22606;SDS011;11470;20.968;105.834;2023-07-16T07:26:51;13.55;;;6.32;;
22606;SDS011;11470;20.968;105.834;2023-07-16T07:31:57;13.75;;;7.18;;
22606;SDS011;11470;20.968;105.834;2023-07-16T07:37:06;14.25;;;4.50;;
22606;SDS011;11470;20.968;105.834;2023-07-16T07:42:12;11.65;;;4.25;;
22606;SDS011;11470;20.968;105.834;2023-07-16T07:47:17;11.73;;;6.32;;
22606;SDS011;11470;20.968;105.834;2023-07-16T07:52:22;23.17;;;9.00;;
22606;SDS011;11470;20.968;105.834;2023-07-16T07:57:28;15.07;;;7.05;;
22606;SDS011;11470;20.968;105.834;2023-07-16T08:02:33;14.60;;;6.93;;
22606;SDS011;11470;20.968;105.834;2023-07-16T08:12:43;19.63;;;9.18;;
22606;SDS011;11470;20.968;105.834;2023-07-16T08:22:53;7.40;;;5.13;;
22606;SDS011;11470;20.968;105.834;2023-07-16T08:27:57;10.75;;;5.80;;
22606;SDS011;11470;20.968;105.834;2023-07-16T08:33:03;11.88;;;5.75;;
22606;SDS011;11470;20.968;105.834;2023-07-16T08:43:13;28.27;;;9.60;;
22606;SDS011;11470;20.968;105.834;2023-07-16T08:48:19;11.77;;;6.75;;
22606;SDS011;11470;20.968;105.834;2023-07-16T08:53:26;16.65;;;6.43;;
22606;SDS011;11470;20.968;105.834;2023-07-16T08:58:31;11.30;;;5.90;;
22606;SDS011;11470;20.968;105.834;2023-07-16T09:03:36;14.48;;;6.45;;
22606;SDS011;11470;20.968;105.834;2023-07-16T09:08:41;22.85;;;7.78;;
22606;SDS011;11470;20.968;105.834;2023-07-16T09:13:46;22.00;;;8.00;;
22606;SDS011;11470;20.968;105.834;2023-07-16T09:18:52;22.27;;;8.98;;
22606;SDS011;11470;20.968;105.834;2023-07-16T09:23:56;12.95;;;7.18;;
22606;SDS011;11470;20.968;105.834;2023-07-16T09:29:05;12.13;;;6.70;;
22606;SDS011;11470;20.968;105.834;2023-07-16T09:40:40;13.07;;;6.95;;
22606;SDS011;11470;20.968;105.834;2023-07-16T09:45:48;23.77;;;8.95;;
22606;SDS011;11470;20.968;105.834;2023-07-16T10:01:04;25.00;;;8.90;;
22606;SDS011;11470;20.968;105.834;2023-07-16T10:06:12;11.75;;;6.05;;
22606;SDS011;11470;20.968;105.834;2023-07-16T10:11:18;8.98;;;5.75;;
22606;SDS011;11470;20.968;105.834;2023-07-16T10:16:23;20.33;;;8.18;;
22606;SDS011;11470;20.968;105.834;2023-07-16T10:21:36;13.80;;;7.72;;
22606;SDS011;11470;20.968;105.834;2023-07-16T10:26:44;11.98;;;5.55;;
22606;SDS011;11470;20.968;105.834;2023-07-16T10:31:49;14.25;;;7.43;;
22606;SDS011;11470;20.968;105.834;2023-07-16T10:36:55;11.10;;;6.47;;
22606;SDS011;11470;20.968;105.834;2023-07-16T10:42:01;13.60;;;7.55;;
22606;SDS011;11470;20.968;105.834;2023-07-16T10:47:06;14.18;;;7.07;;
22606;SDS011;11470;20.968;105.834;2023-07-16T10:52:12;28.00;;;10.15;;
22606;SDS011;11470;20.968;105.834;2023-07-16T10:57:17;18.52;;;8.10;;
22606;SDS011;11470;20.968;105.834;2023-07-16T11:02:23;10.95;;;6.55;;
22606;SDS011;11470;20.968;105.834;2023-07-16T11:07:30;12.77;;;6.80;;
22606;SDS011;11470;20.968;105.834;2023-07-16T11:17:40;16.75;;;9.00;;
22606;SDS011;11470;20.968;105.834;2023-07-16T11:22:48;16.60;;;7.45;;
22606;SDS011;11470;20.968;105.834;2023-07-16T11:28:01;21.13;;;9.07;;
22606;SDS011;11470;20.968;105.834;2023-07-16T11:33:12;16.63;;;7.90;;
22606;SDS011;11470;20.968;105.834;2023-07-16T11:38:20;22.42;;;10.23;;
22606;SDS011;11470;20.968;105.834;2023-07-16T11:43:28;24.95;;;9.73;;
22606;SDS011;11470;20.968;105.834;2023-07-16T11:48:40;22.60;;;8.73;;
22606;SDS011;11470;20.968;105.834;2023-07-16T11:53:45;21.45;;;9.93;;
22606;SDS011;11470;20.968;105.834;2023-07-16T11:58:53;25.70;;;9.57;;
22606;SDS011;11470;20.968;105.834;2023-07-16T12:03:58;19.23;;;9.45;;
22606;SDS011;11470;20.968;105.834;2023-07-16T12:14:08;29.08;;;9.40;;
22606;SDS011;11470;20.968;105.834;2023-07-16T12:19:18;27.98;;;11.05;;
22606;SDS011;11470;20.968;105.834;2023-07-16T12:29:37;30.95;;;11.93;;
22606;SDS011;11470;20.968;105.834;2023-07-16T12:34:42;29.45;;;12.60;;
22606;SDS011;11470;20.968;105.834;2023-07-16T12:39:48;33.13;;;13.45;;
22606;SDS011;11470;20.968;105.834;2023-07-16T12:44:55;24.60;;;14.05;;
22606;SDS011;11470;20.968;105.834;2023-07-16T12:50:01;41.10;;;20.83;;
22606;SDS011;11470;20.968;105.834;2023-07-16T12:55:06;25.70;;;13.02;;
22606;SDS011;11470;20.968;105.834;2023-07-16T13:00:11;66.15;;;35.20;;
22606;SDS011;11470;20.968;105.834;2023-07-16T13:05:18;16.60;;;8.93;;
22606;SDS011;11470;20.968;105.834;2023-07-16T13:10:23;41.30;;;22.05;;
22606;SDS011;11470;20.968;105.834;2023-07-16T13:15:28;35.95;;;19.75;;
22606;SDS011;11470;20.968;105.834;2023-07-16T13:20:35;25.10;;;14.50;;
22606;SDS011;11470;20.968;105.834;2023-07-16T13:30:45;34.53;;;19.80;;
22606;SDS011;11470;20.968;105.834;2023-07-16T13:35:51;50.00;;;28.63;;
22606;SDS011;11470;20.968;105.834;2023-07-16T13:40:58;38.55;;;21.30;;
22606;SDS011;11470;20.968;105.834;2023-07-16T13:46:03;48.75;;;27.60;;
22606;SDS011;11470;20.968;105.834;2023-07-16T13:51:09;63.90;;;35.50;;
22606;SDS011;11470;20.968;105.834;2023-07-16T13:56:13;64.10;;;38.10;;
22606;SDS011;11470;20.968;105.834;2023-07-16T14:01:19;49.55;;;26.75;;
22606;SDS011;11470;20.968;105.834;2023-07-16T14:06:25;46.17;;;29.25;;
22606;SDS011;11470;20.968;105.834;2023-07-16T14:11:30;68.80;;;42.50;;
22606;SDS011;11470;20.968;105.834;2023-07-16T14:21:40;58.17;;;36.17;;
22606;SDS011;11470;20.968;105.834;2023-07-16T14:26:48;62.13;;;38.45;;
22606;SDS011;11470;20.968;105.834;2023-07-16T14:31:53;70.75;;;39.33;;
22606;SDS011;11470;20.968;105.834;2023-07-16T14:36:58;80.38;;;45.55;;
22606;SDS011;11470;20.968;105.834;2023-07-16T14:42:06;75.78;;;44.75;;
22606;SDS011;11470;20.968;105.834;2023-07-16T14:47:10;82.78;;;46.35;;
22606;SDS011;11470;20.968;105.834;2023-07-16T14:52:18;82.32;;;48.10;;
22606;SDS011;11470;20.968;105.834;2023-07-16T14:57:23;72.07;;;42.58;;
22606;SDS011;11470;20.968;105.834;2023-07-16T15:02:29;80.50;;;46.15;;
22606;SDS011;11470;20.968;105.834;2023-07-16T15:07:35;63.47;;;36.78;;
22606;SDS011;11470;20.968;105.834;2023-07-16T15:12:41;61.50;;;37.50;;
22606;SDS011;11470;20.968;105.834;2023-07-16T15:17:46;72.28;;;42.30;;
22606;SDS011;11470;20.968;105.834;2023-07-16T15:22:53;80.57;;;47.65;;
22606;SDS011;11470;20.968;105.834;2023-07-16T15:27:58;69.72;;;40.60;;
22606;SDS011;11470;20.968;105.834;2023-07-16T15:33:07;62.50;;;37.17;;
22606;SDS011;11470;20.968;105.834;2023-07-16T15:38:21;66.47;;;38.60;;
22606;SDS011;11470;20.968;105.834;2023-07-16T15:43:30;66.45;;;39.42;;
22606;SDS011;11470;20.968;105.834;2023-07-16T15:48:35;66.30;;;43.17;;
22606;SDS011;11470;20.968;105.834;2023-07-16T15:53:44;83.65;;;49.55;;
22606;SDS011;11470;20.968;105.834;2023-07-16T15:58:51;67.10;;;43.25;;
22606;SDS011;11470;20.968;105.834;2023-07-16T16:03:57;68.15;;;42.78;;
22606;SDS011;11470;20.968;105.834;2023-07-16T16:09:02;66.43;;;41.47;;
22606;SDS011;11470;20.968;105.834;2023-07-16T16:14:08;63.95;;;37.88;;
22606;SDS011;11470;20.968;105.834;2023-07-16T16:24:22;68.68;;;41.28;;
22606;SDS011;11470;20.968;105.834;2023-07-16T16:34:32;70.47;;;42.00;;
22606;SDS011;11470;20.968;105.834;2023-07-16T16:39:38;78.55;;;47.25;;
22606;SDS011;11470;20.968;105.834;2023-07-16T16:44:43;65.28;;;42.58;;
22606;SDS011;11470;20.968;105.834;2023-07-16T16:49:55;83.45;;;48.75;;
22606;SDS011;11470;20.968;105.834;2023-07-16T16:55:00;94.70;;;53.40;;
22606;SDS011;11470;20.968;105.834;2023-07-16T17:00:10;78.65;;;46.97;;
22606;SDS011;11470;20.968;105.834;2023-07-16T17:05:16;54.70;;;30.33;;
22606;SDS011;11470;20.968;105.834;2023-07-16T17:10:21;38.08;;;23.42;;
22606;SDS011;11470;20.968;105.834;2023-07-16T17:15:26;45.95;;;28.42;;
22606;SDS011;11470;20.968;105.834;2023-07-16T17:25:35;46.20;;;27.65;;
22606;SDS011;11470;20.968;105.834;2023-07-16T17:30:41;49.80;;;29.58;;
22606;SDS011;11470;20.968;105.834;2023-07-16T17:40:51;61.20;;;30.75;;
22606;SDS011;11470;20.968;105.834;2023-07-16T17:45:56;46.63;;;29.42;;
22606;SDS011;11470;20.968;105.834;2023-07-16T17:51:03;49.30;;;28.83;;
22606;SDS011;11470;20.968;105.834;2023-07-16T17:56:09;50.25;;;28.08;;
22606;SDS011;11470;20.968;105.834;2023-07-16T18:01:15;47.92;;;28.50;;
22606;SDS011;11470;20.968;105.834;2023-07-16T18:06:21;55.13;;;29.20;;
22606;SDS011;11470;20.968;105.834;2023-07-16T18:11:26;45.22;;;27.35;;
22606;SDS011;11470;20.968;105.834;2023-07-16T18:16:31;51.38;;;27.92;;
22606;SDS011;11470;20.968;105.834;2023-07-16T18:26:54;50.97;;;29.05;;
22606;SDS011;11470;20.968;105.834;2023-07-16T18:31:59;44.30;;;26.33;;
22606;SDS011;11470;20.968;105.834;2023-07-16T18:37:04;41.47;;;26.55;;
22606;SDS011;11470;20.968;105.834;2023-07-16T18:42:09;52.90;;;25.17;;
22606;SDS011;11470;20.968;105.834;2023-07-16T18:47:19;45.42;;;26.75;;
22606;SDS011;11470;20.968;105.834;2023-07-16T18:52:25;48.10;;;25.63;;
22606;SDS011;11470;20.968;105.834;2023-07-16T18:57:29;42.72;;;25.58;;
22606;SDS011;11470;20.968;105.834;2023-07-16T19:02:35;43.60;;;24.98;;
22606;SDS011;11470;20.968;105.834;2023-07-16T19:07:40;42.38;;;25.15;;
22606;SDS011;11470;20.968;105.834;2023-07-16T19:12:46;40.95;;;24.23;;
22606;SDS011;11470;20.968;105.834;2023-07-16T19:17:51;41.20;;;23.63;;
22606;SDS011;11470;20.968;105.834;2023-07-16T19:22:56;36.73;;;23.53;;
22606;SDS011;11470;20.968;105.834;2023-07-16T19:28:01;38.90;;;23.27;;
22606;SDS011;11470;20.968;105.834;2023-07-16T19:33:06;39.10;;;21.20;;
22606;SDS011;11470;20.968;105.834;2023-07-16T19:38:11;33.40;;;15.13;;
22606;SDS011;11470;20.968;105.834;2023-07-16T19:43:17;34.40;;;18.00;;
22606;SDS011;11470;20.968;105.834;2023-07-16T19:48:22;39.78;;;22.67;;
22606;SDS011;11470;20.968;105.834;2023-07-16T19:53:27;28.83;;;17.77;;
22606;SDS011;11470;20.968;105.834;2023-07-16T19:58:32;39.70;;;20.33;;
22606;SDS011;11470;20.968;105.834;2023-07-16T20:03:37;32.72;;;19.95;;
22606;SDS011;11470;20.968;105.834;2023-07-16T20:08:42;31.08;;;18.45;;
22606;SDS011;11470;20.968;105.834;2023-07-16T20:13:47;32.88;;;17.80;;
22606;SDS011;11470;20.968;105.834;2023-07-16T20:18:52;35.53;;;20.52;;
22606;SDS011;11470;20.968;105.834;2023-07-16T20:23:57;33.77;;;19.90;;
22606;SDS011;11470;20.968;105.834;2023-07-16T20:29:03;32.45;;;17.92;;
22606;SDS011;11470;20.968;105.834;2023-07-16T20:34:08;30.92;;;18.20;;
22606;SDS011;11470;20.968;105.834;2023-07-16T20:39:13;33.38;;;18.20;;
22606;SDS011;11470;20.968;105.834;2023-07-16T20:44:18;24.92;;;16.35;;
22606;SDS011;11470;20.968;105.834;2023-07-16T20:49:23;23.40;;;12.35;;
22606;SDS011;11470;20.968;105.834;2023-07-16T20:54:28;26.42;;;15.45;;
22606;SDS011;11470;20.968;105.834;2023-07-16T21:04:38;29.77;;;17.35;;
22606;SDS011;11470;20.968;105.834;2023-07-16T21:09:43;27.35;;;15.68;;
22606;SDS011;11470;20.968;105.834;2023-07-16T21:14:48;30.30;;;16.55;;
22606;SDS011;11470;20.968;105.834;2023-07-16T21:19:53;30.27;;;16.15;;
22606;SDS011;11470;20.968;105.834;2023-07-16T21:25:03;30.83;;;16.67;;
22606;SDS011;11470;20.968;105.834;2023-07-16T21:30:09;35.17;;;17.55;;
22606;SDS011;11470;20.968;105.834;2023-07-16T21:35:14;32.60;;;15.98;;
22606;SDS011;11470;20.968;105.834;2023-07-16T21:45:24;24.38;;;13.98;;
22606;SDS011;11470;20.968;105.834;2023-07-16T21:50:30;23.63;;;11.55;;
22606;SDS011;11470;20.968;105.834;2023-07-16T21:55:35;20.13;;;10.80;;
22606;SDS011;11470;20.968;105.834;2023-07-16T22:00:40;20.42;;;11.85;;
22606;SDS011;11470;20.968;105.834;2023-07-16T22:05:45;23.25;;;13.68;;
22606;SDS011;11470;20.968;105.834;2023-07-16T22:10:51;26.17;;;13.53;;
22606;SDS011;11470;20.968;105.834;2023-07-16T22:15:56;23.13;;;12.80;;
22606;SDS011;11470;20.968;105.834;2023-07-16T22:21:00;18.90;;;8.40;;
22606;SDS011;11470;20.968;105.834;2023-07-16T22:26:05;16.70;;;8.80;;
22606;SDS011;11470;20.968;105.834;2023-07-16T22:31:10;18.70;;;7.10;;
22606;SDS011;11470;20.968;105.834;2023-07-16T22:36:16;18.85;;;10.52;;
22606;SDS011;11470;20.968;105.834;2023-07-16T22:41:21;17.10;;;9.45;;
22606;SDS011;11470;20.968;105.834;2023-07-16T22:46:26;20.40;;;8.75;;
22606;SDS011;11470;20.968;105.834;2023-07-16T22:51:31;25.67;;;12.00;;
22606;SDS011;11470;20.968;105.834;2023-07-16T22:56:36;21.05;;;11.98;;
22606;SDS011;11470;20.968;105.834;2023-07-16T23:01:42;23.60;;;12.75;;
22606;SDS011;11470;20.968;105.834;2023-07-16T23:06:47;23.92;;;12.68;;
22606;SDS011;11470;20.968;105.834;2023-07-16T23:11:52;25.07;;;13.20;;
22606;SDS011;11470;20.968;105.834;2023-07-16T23:22:02;25.10;;;13.40;;
22606;SDS011;11470;20.968;105.834;2023-07-16T23:27:07;28.85;;;13.07;;
22606;SDS011;11470;20.968;105.834;2023-07-16T23:32:12;20.43;;;11.67;;
22606;SDS011;11470;20.968;105.834;2023-07-16T23:37:17;20.85;;;9.98;;
22606;SDS011;11470;20.968;105.834;2023-07-16T23:42:22;24.38;;;12.77;;
22606;SDS011;11470;20.968;105.834;2023-07-16T23:47:27;28.02;;;14.18;;
22606;SDS011;11470;20.968;105.834;2023-07-16T23:52:33;25.90;;;13.52;;
22606;SDS011;11470;20.968;105.834;2023-07-16T23:57:38;22.65;;;11.30;;
